CheckWX is a tool to help pilots better visualize weather data.  It is not intended as a substitute for an official pre-flight weather briefing.

03:03:48 UTC

KSIY METAR
Siskiyou County Airport
Montague, California, USA
Current

11 mins ago

KSIY 230253Z AUTO 36006KT 10SM CLR 14/09 A3001 RMK AO2 SLP168 60000 T01440094 53011
Observed
Sep-23 @ 02:53 UTC
Wind
  • 360° at 6 KTS
Visibility
10 SM
Flight Rules
VFR
Cloud Levels
  • Clear skies
Temperature
14°C / 57°F
Dewpoint
C / 48°F
Humidity
72%
Altimeter
30.01" Hg
Pressure
1016.22 hPa
Previous

1 hour ago

KSIY 230153Z AUTO 27006KT 10SM CLR 17/11 A2999 RMK AO2 SLP159 T01720106
Observed
Sep-23 @ 01:53 UTC
Wind
  • 270° at 6 KTS
Visibility
10 SM
Flight Rules
VFR
Cloud Levels
  • Clear skies
Temperature
17°C / 63°F
Dewpoint
11°C / 52°F
Humidity
68%
Altimeter
29.99" Hg
Pressure
1015.62 hPa
Previous

2 hours ago

KSIY 230053Z AUTO 19005KT 10SM FEW047 BKN060 17/13 A2998 RMK AO2 RAB03E38 SLP156 P0000 T01720128
Observed
Sep-23 @ 00:53 UTC
Wind
  • 190° at 5 KTS
Visibility
10 SM
Flight Rules
VFR
Cloud Levels
  • Few at 4,700' AGL
  • Broken at 6,000' AGL
Temperature
17°C / 63°F
Dewpoint
13°C / 55°F
Humidity
77%
Altimeter
29.98" Hg
Pressure
1015.22 hPa
Current Rain
0.01"